sensor_id;sensor_type;location;lat;lon;timestamp;temperature;humidity
40454;DHT22;26160;51.858;4.398;2023-03-01T00:01:31;1.20;99.90
40454;DHT22;26160;51.858;4.398;2023-03-01T00:03:59;1.20;99.90
40454;DHT22;26160;51.858;4.398;2023-03-01T00:09:01;1.10;99.90
40454;DHT22;26160;51.858;4.398;2023-03-01T00:11:32;1.10;99.90
40454;DHT22;26160;51.858;4.398;2023-03-01T00:14:00;1.10;99.90
40454;DHT22;26160;51.858;4.398;2023-03-01T00:16:47;1.00;99.90
40454;DHT22;26160;51.858;4.398;2023-03-01T00:19:21;1.00;99.90
40454;DHT22;26160;51.858;4.398;2023-03-01T00:21:50;1.00;99.90
40454;DHT22;26160;51.858;4.398;2023-03-01T00:24:16;1.00;99.90
40454;DHT22;26160;51.858;4.398;2023-03-01T00:26:45;1.00;99.90
40454;DHT22;26160;51.858;4.398;2023-03-01T00:29:23;1.10;99.90
40454;DHT22;26160;51.858;4.398;2023-03-01T00:32:01;1.00;99.90
40454;DHT22;26160;51.858;4.398;2023-03-01T00:34:28;0.90;99.90
40454;DHT22;26160;51.858;4.398;2023-03-01T00:36:55;0.90;99.90
40454;DHT22;26160;51.858;4.398;2023-03-01T00:39:32;0.80;99.90
40454;DHT22;26160;51.858;4.398;2023-03-01T00:41:59;0.80;99.90
40454;DHT22;26160;51.858;4.398;2023-03-01T00:44:28;0.90;99.90
40454;DHT22;26160;51.858;4.398;2023-03-01T00:46:58;0.80;99.90
40454;DHT22;26160;51.858;4.398;2023-03-01T00:49:24;0.70;99.90
40454;DHT22;26160;51.858;4.398;2023-03-01T00:51:53;0.70;99.90
40454;DHT22;26160;51.858;4.398;2023-03-01T00:56:58;0.60;99.90
40454;DHT22;26160;51.858;4.398;2023-03-01T00:59:24;0.60;99.90
40454;DHT22;26160;51.858;4.398;2023-03-01T01:04:53;0.40;99.90
40454;DHT22;26160;51.858;4.398;2023-03-01T01:07:28;0.30;99.90
40454;DHT22;26160;51.858;4.398;2023-03-01T01:09:54;0.30;99.90
40454;DHT22;26160;51.858;4.398;2023-03-01T01:14:56;0.20;99.90
40454;DHT22;26160;51.858;4.398;2023-03-01T01:17:44;0.20;99.90
40454;DHT22;26160;51.858;4.398;2023-03-01T01:20:15;0.30;99.90
40454;DHT22;26160;51.858;4.398;2023-03-01T01:22:42;0.30;99.90
40454;DHT22;26160;51.858;4.398;2023-03-01T01:25:15;0.30;99.90
40454;DHT22;26160;51.858;4.398;2023-03-01T01:27:44;0.30;99.90
40454;DHT22;26160;51.858;4.398;2023-03-01T01:32:50;0.30;99.90
40454;DHT22;26160;51.858;4.398;2023-03-01T01:35:17;0.30;99.90
40454;DHT22;26160;51.858;4.398;2023-03-01T01:45:33;0.20;99.90
40454;DHT22;26160;51.858;4.398;2023-03-01T01:53:17;0.30;99.90
40454;DHT22;26160;51.858;4.398;2023-03-01T01:55:48;0.40;99.90
40454;DHT22;26160;51.858;4.398;2023-03-01T01:58:30;0.50;99.90
40454;DHT22;26160;51.858;4.398;2023-03-01T02:03:59;0.50;99.90
40454;DHT22;26160;51.858;4.398;2023-03-01T02:15:40;0.40;99.90
40454;DHT22;26160;51.858;4.398;2023-03-01T02:23:27;0.40;99.90
40454;DHT22;26160;51.858;4.398;2023-03-01T02:28:38;0.30;99.90
40454;DHT22;26160;51.858;4.398;2023-03-01T02:33:39;0.30;99.90
40454;DHT22;26160;51.858;4.398;2023-03-01T02:36:12;0.30;99.90
40454;DHT22;26160;51.858;4.398;2023-03-01T02:41:20;0.20;99.90
40454;DHT22;26160;51.858;4.398;2023-03-01T02:43:48;0.20;99.90
40454;DHT22;26160;51.858;4.398;2023-03-01T02:46:19;0.20;99.90
40454;DHT22;26160;51.858;4.398;2023-03-01T02:57:31;0.20;99.90
40454;DHT22;26160;51.858;4.398;2023-03-01T03:00:04;0.20;99.90
40454;DHT22;26160;51.858;4.398;2023-03-01T03:02:34;0.10;99.90
40454;DHT22;26160;51.858;4.398;2023-03-01T03:05:11;0.10;99.90
40454;DHT22;26160;51.858;4.398;2023-03-01T03:07:40;0.00;99.90
40454;DHT22;26160;51.858;4.398;2023-03-01T03:10:13;0.00;99.90
40454;DHT22;26160;51.858;4.398;2023-03-01T03:12:42;-0.10;99.90
40454;DHT22;26160;51.858;4.398;2023-03-01T03:15:10;-0.10;99.90
40454;DHT22;26160;51.858;4.398;2023-03-01T03:17:39;-0.20;99.90
40454;DHT22;26160;51.858;4.398;2023-03-01T03:20:07;-0.20;99.90
40454;DHT22;26160;51.858;4.398;2023-03-01T03:22:40;-0.30;99.90
40454;DHT22;26160;51.858;4.398;2023-03-01T03:25:07;-0.40;99.90
40454;DHT22;26160;51.858;4.398;2023-03-01T03:32:49;-0.60;99.90
40454;DHT22;26160;51.858;4.398;2023-03-01T03:35:50;-0.60;99.90
40454;DHT22;26160;51.858;4.398;2023-03-01T03:41:03;-0.80;99.90
40454;DHT22;26160;51.858;4.398;2023-03-01T04:16:34;-1.30;99.90
40454;DHT22;26160;51.858;4.398;2023-03-01T04:22:17;-1.30;99.90
40454;DHT22;26160;51.858;4.398;2023-03-01T04:29:59;-1.40;99.90
40454;DHT22;26160;51.858;4.398;2023-03-01T04:35:26;-1.50;99.90
40454;DHT22;26160;51.858;4.398;2023-03-01T05:25:08;-1.80;99.90
40454;DHT22;26160;51.858;4.398;2023-03-01T05:40:40;-1.90;99.90
40454;DHT22;26160;51.858;4.398;2023-03-01T06:42:29;-2.00;99.90
40454;DHT22;26160;51.858;4.398;2023-03-01T06:44:55;-2.00;99.90
40454;DHT22;26160;51.858;4.398;2023-03-01T06:47:26;-2.10;99.90
40454;DHT22;26160;51.858;4.398;2023-03-01T06:49:55;-2.10;99.90
40454;DHT22;26160;51.858;4.398;2023-03-01T06:52:38;-2.20;99.90
40454;DHT22;26160;51.858;4.398;2023-03-01T06:55:38;-2.20;99.90
40454;DHT22;26160;51.858;4.398;2023-03-01T06:58:12;-2.30;99.90
40454;DHT22;26160;51.858;4.398;2023-03-01T07:00:49;-2.20;99.90
40454;DHT22;26160;51.858;4.398;2023-03-01T07:03:33;-2.20;99.90
40454;DHT22;26160;51.858;4.398;2023-03-01T07:06:00;-2.20;99.90
40454;DHT22;26160;51.858;4.398;2023-03-01T07:08:56;-2.20;99.90
40454;DHT22;26160;51.858;4.398;2023-03-01T07:14:43;-2.30;99.90
40454;DHT22;26160;51.858;4.398;2023-03-01T07:17:11;-2.30;99.90
40454;DHT22;26160;51.858;4.398;2023-03-01T07:19:57;-2.30;99.90
40454;DHT22;26160;51.858;4.398;2023-03-01T07:23:01;-2.30;99.90
40454;DHT22;26160;51.858;4.398;2023-03-01T07:25:27;-2.30;99.90
40454;DHT22;26160;51.858;4.398;2023-03-01T07:28:10;-2.30;99.90
40454;DHT22;26160;51.858;4.398;2023-03-01T07:30:36;-2.20;99.90
40454;DHT22;26160;51.858;4.398;2023-03-01T07:33:03;-2.20;99.90
40454;DHT22;26160;51.858;4.398;2023-03-01T07:35:36;-2.10;99.90
40454;DHT22;26160;51.858;4.398;2023-03-01T07:38:03;-2.10;99.90
40454;DHT22;26160;51.858;4.398;2023-03-01T07:40:29;-1.90;99.90
40454;DHT22;26160;51.858;4.398;2023-03-01T07:43:02;-1.70;99.90
40454;DHT22;26160;51.858;4.398;2023-03-01T07:51:07;-1.30;99.90
40454;DHT22;26160;51.858;4.398;2023-03-01T07:56:20;-0.90;99.90
40454;DHT22;26160;51.858;4.398;2023-03-01T07:58:48;-0.80;99.90
40454;DHT22;26160;51.858;4.398;2023-03-01T08:01:30;-0.70;99.90
40454;DHT22;26160;51.858;4.398;2023-03-01T08:04:16;-0.60;99.90
40454;DHT22;26160;51.858;4.398;2023-03-01T08:06:43;-0.40;99.90
40454;DHT22;26160;51.858;4.398;2023-03-01T08:11:52;-0.10;99.90
40454;DHT22;26160;51.858;4.398;2023-03-01T08:14:20;0.10;99.90
40454;DHT22;26160;51.858;4.398;2023-03-01T08:16:49;0.20;99.90
40454;DHT22;26160;51.858;4.398;2023-03-01T08:24:32;0.60;99.90
40454;DHT22;26160;51.858;4.398;2023-03-01T08:27:07;0.70;99.90
40454;DHT22;26160;51.858;4.398;2023-03-01T08:29:34;0.90;99.90
40454;DHT22;26160;51.858;4.398;2023-03-01T08:32:03;1.00;99.90
40454;DHT22;26160;51.858;4.398;2023-03-01T08:35:03;1.20;99.90
40454;DHT22;26160;51.858;4.398;2023-03-01T08:37:33;1.50;99.90
40454;DHT22;26160;51.858;4.398;2023-03-01T08:45:13;1.80;99.90
40454;DHT22;26160;51.858;4.398;2023-03-01T08:56:12;2.30;99.90
40454;DHT22;26160;51.858;4.398;2023-03-01T08:58:38;2.30;99.90
40454;DHT22;26160;51.858;4.398;2023-03-01T09:01:22;2.40;99.90
40454;DHT22;26160;51.858;4.398;2023-03-01T09:16:56;2.80;99.90
40454;DHT22;26160;51.858;4.398;2023-03-01T09:25:01;3.20;99.90
40454;DHT22;26160;51.858;4.398;2023-03-01T09:32:52;3.40;99.90
40454;DHT22;26160;51.858;4.398;2023-03-01T09:35:19;3.50;99.90
40454;DHT22;26160;51.858;4.398;2023-03-01T09:37:55;3.50;99.90
40454;DHT22;26160;51.858;4.398;2023-03-01T09:40:28;3.50;99.90
40454;DHT22;26160;51.858;4.398;2023-03-01T09:46:04;3.70;99.90
40454;DHT22;26160;51.858;4.398;2023-03-01T09:48:44;3.80;99.90
40454;DHT22;26160;51.858;4.398;2023-03-01T09:51:22;3.80;99.90
40454;DHT22;26160;51.858;4.398;2023-03-01T09:53:50;3.80;99.90
40454;DHT22;26160;51.858;4.398;2023-03-01T09:56:30;4.00;99.90
40454;DHT22;26160;51.858;4.398;2023-03-01T10:04:48;4.20;99.90
40454;DHT22;26160;51.858;4.398;2023-03-01T10:09:51;4.60;99.90
40454;DHT22;26160;51.858;4.398;2023-03-01T10:12:39;4.70;99.90
40454;DHT22;26160;51.858;4.398;2023-03-01T10:18:21;5.00;99.90
40454;DHT22;26160;51.858;4.398;2023-03-01T10:20:57;5.10;99.90
40454;DHT22;26160;51.858;4.398;2023-03-01T10:31:15;5.20;99.90
40454;DHT22;26160;51.858;4.398;2023-03-01T10:33:56;5.20;99.90
40454;DHT22;26160;51.858;4.398;2023-03-01T10:36:33;5.30;99.90
40454;DHT22;26160;51.858;4.398;2023-03-01T10:39:05;5.40;99.90
40454;DHT22;26160;51.858;4.398;2023-03-01T10:42:04;5.50;99.90
40454;DHT22;26160;51.858;4.398;2023-03-01T10:52:37;5.80;99.90
40454;DHT22;26160;51.858;4.398;2023-03-01T10:57:42;6.00;99.90
40454;DHT22;26160;51.858;4.398;2023-03-01T11:00:24;6.10;99.90
40454;DHT22;26160;51.858;4.398;2023-03-01T11:03:13;6.30;99.90
40454;DHT22;26160;51.858;4.398;2023-03-01T11:08:48;6.50;99.90
40454;DHT22;26160;51.858;4.398;2023-03-01T11:14:18;6.40;99.90
40454;DHT22;26160;51.858;4.398;2023-03-01T11:23:30;6.70;99.90
40454;DHT22;26160;51.858;4.398;2023-03-01T11:26:09;6.70;99.90
40454;DHT22;26160;51.858;4.398;2023-03-01T11:28:37;6.80;99.90
40454;DHT22;26160;51.858;4.398;2023-03-01T11:31:10;6.90;99.90
40454;DHT22;26160;51.858;4.398;2023-03-01T11:34:08;7.10;99.90
40454;DHT22;26160;51.858;4.398;2023-03-01T11:36:54;7.20;99.90
40454;DHT22;26160;51.858;4.398;2023-03-01T11:39:43;7.10;99.90
40454;DHT22;26160;51.858;4.398;2023-03-01T11:44:54;7.20;99.90
40454;DHT22;26160;51.858;4.398;2023-03-01T12:09:02;7.80;99.90
40454;DHT22;26160;51.858;4.398;2023-03-01T12:11:57;7.70;99.90
40454;DHT22;26160;51.858;4.398;2023-03-01T12:39:32;8.40;99.90
40454;DHT22;26160;51.858;4.398;2023-03-01T12:44:58;8.30;99.90
40454;DHT22;26160;51.858;4.398;2023-03-01T12:52:50;8.50;99.90
40454;DHT22;26160;51.858;4.398;2023-03-01T12:55:36;8.70;99.90
40454;DHT22;26160;51.858;4.398;2023-03-01T12:58:27;8.70;99.90
40454;DHT22;26160;51.858;4.398;2023-03-01T13:17:59;8.80;99.90
40454;DHT22;26160;51.858;4.398;2023-03-01T13:20:45;8.80;99.90
40454;DHT22;26160;51.858;4.398;2023-03-01T13:26:07;8.70;99.90
40454;DHT22;26160;51.858;4.398;2023-03-01T13:31:01;9.00;99.90
40454;DHT22;26160;51.858;4.398;2023-03-01T13:35:56;9.10;99.90
40454;DHT22;26160;51.858;4.398;2023-03-01T13:41:13;8.80;99.90
40454;DHT22;26160;51.858;4.398;2023-03-01T13:43:44;8.90;99.90
40454;DHT22;26160;51.858;4.398;2023-03-01T13:46:18;9.00;99.90
40454;DHT22;26160;51.858;4.398;2023-03-01T13:48:52;9.10;99.90
40454;DHT22;26160;51.858;4.398;2023-03-01T13:51:27;9.20;99.90
40454;DHT22;26160;51.858;4.398;2023-03-01T13:54:11;8.90;99.90
40454;DHT22;26160;51.858;4.398;2023-03-01T13:56:42;8.90;99.90
40454;DHT22;26160;51.858;4.398;2023-03-01T13:59:20;8.90;99.90
40454;DHT22;26160;51.858;4.398;2023-03-01T14:02:01;8.80;99.90
40454;DHT22;26160;51.858;4.398;2023-03-01T14:04:32;8.80;99.90
40454;DHT22;26160;51.858;4.398;2023-03-01T14:07:20;8.90;99.90
40454;DHT22;26160;51.858;4.398;2023-03-01T14:09:59;8.90;99.90
40454;DHT22;26160;51.858;4.398;2023-03-01T14:12:50;8.70;99.90
40454;DHT22;26160;51.858;4.398;2023-03-01T14:15:33;8.70;99.90
40454;DHT22;26160;51.858;4.398;2023-03-01T14:18:19;8.80;99.90
40454;DHT22;26160;51.858;4.398;2023-03-01T14:20:51;8.90;99.90
40454;DHT22;26160;51.858;4.398;2023-03-01T14:23:21;8.80;99.90
40454;DHT22;26160;51.858;4.398;2023-03-01T14:25:49;8.70;99.90
40454;DHT22;26160;51.858;4.398;2023-03-01T14:31:39;8.70;99.90
40454;DHT22;26160;51.858;4.398;2023-03-01T14:34:19;8.80;99.90
40454;DHT22;26160;51.858;4.398;2023-03-01T14:39:24;8.70;99.90
40454;DHT22;26160;51.858;4.398;2023-03-01T14:41:52;8.70;99.90
40454;DHT22;26160;51.858;4.398;2023-03-01T14:44:22;8.70;99.90
40454;DHT22;26160;51.858;4.398;2023-03-01T14:46:55;8.60;99.90
40454;DHT22;26160;51.858;4.398;2023-03-01T14:49:30;8.60;99.90
40454;DHT22;26160;51.858;4.398;2023-03-01T14:52:06;8.60;99.90
40454;DHT22;26160;51.858;4.398;2023-03-01T14:54:54;8.60;99.90
40454;DHT22;26160;51.858;4.398;2023-03-01T14:57:27;8.70;99.90
40454;DHT22;26160;51.858;4.398;2023-03-01T14:59:57;8.70;99.90
40454;DHT22;26160;51.858;4.398;2023-03-01T15:02:31;8.70;99.90
40454;DHT22;26160;51.858;4.398;2023-03-01T15:05:01;8.80;99.90
40454;DHT22;26160;51.858;4.398;2023-03-01T15:07:37;8.70;99.90
40454;DHT22;26160;51.858;4.398;2023-03-01T15:10:07;8.70;99.90
40454;DHT22;26160;51.858;4.398;2023-03-01T15:12:38;8.60;99.90
40454;DHT22;26160;51.858;4.398;2023-03-01T15:18:04;8.50;99.90
40454;DHT22;26160;51.858;4.398;2023-03-01T15:20:30;8.50;99.90
40454;DHT22;26160;51.858;4.398;2023-03-01T15:23:01;8.50;99.90
40454;DHT22;26160;51.858;4.398;2023-03-01T15:25:29;8.40;99.90
40454;DHT22;26160;51.858;4.398;2023-03-01T15:27:58;8.40;99.90
40454;DHT22;26160;51.858;4.398;2023-03-01T15:30:32;8.40;99.90
40454;DHT22;26160;51.858;4.398;2023-03-01T15:35:57;8.30;99.90
40454;DHT22;26160;51.858;4.398;2023-03-01T15:41:46;8.30;99.90
40454;DHT22;26160;51.858;4.398;2023-03-01T15:44:27;8.20;99.90
40454;DHT22;26160;51.858;4.398;2023-03-01T15:46:53;8.10;99.90
40454;DHT22;26160;51.858;4.398;2023-03-01T15:51:54;8.10;99.90
40454;DHT22;26160;51.858;4.398;2023-03-01T15:54:23;8.10;99.90
40454;DHT22;26160;51.858;4.398;2023-03-01T15:56:50;8.00;99.90
40454;DHT22;26160;51.858;4.398;2023-03-01T15:59:17;8.00;99.90
40454;DHT22;26160;51.858;4.398;2023-03-01T16:01:44;7.90;99.90
40454;DHT22;26160;51.858;4.398;2023-03-01T16:04:12;7.90;99.90
40454;DHT22;26160;51.858;4.398;2023-03-01T16:06:42;7.80;99.90
40454;DHT22;26160;51.858;4.398;2023-03-01T16:09:08;7.70;99.90
40454;DHT22;26160;51.858;4.398;2023-03-01T16:11:35;7.70;99.90
40454;DHT22;26160;51.858;4.398;2023-03-01T16:14:03;7.60;99.90
40454;DHT22;26160;51.858;4.398;2023-03-01T16:16:29;7.60;99.90
40454;DHT22;26160;51.858;4.398;2023-03-01T16:18:55;7.60;99.90
40454;DHT22;26160;51.858;4.398;2023-03-01T16:21:24;7.60;99.90
40454;DHT22;26160;51.858;4.398;2023-03-01T16:23:51;7.60;99.90
40454;DHT22;26160;51.858;4.398;2023-03-01T16:26:18;7.50;99.90
40454;DHT22;26160;51.858;4.398;2023-03-01T16:28:45;7.50;99.90
40454;DHT22;26160;51.858;4.398;2023-03-01T16:31:12;7.40;99.90
40454;DHT22;26160;51.858;4.398;2023-03-01T16:33:42;7.30;99.90
40454;DHT22;26160;51.858;4.398;2023-03-01T16:36:10;7.30;99.90
40454;DHT22;26160;51.858;4.398;2023-03-01T16:38:36;7.20;99.90
40454;DHT22;26160;51.858;4.398;2023-03-01T16:41:03;7.20;99.90
40454;DHT22;26160;51.858;4.398;2023-03-01T16:43:34;7.20;99.90
40454;DHT22;26160;51.858;4.398;2023-03-01T16:46:10;7.10;99.90
40454;DHT22;26160;51.858;4.398;2023-03-01T16:48:38;7.00;99.90
40454;DHT22;26160;51.858;4.398;2023-03-01T16:51:06;7.00;99.90
40454;DHT22;26160;51.858;4.398;2023-03-01T16:53:34;6.90;99.90
40454;DHT22;26160;51.858;4.398;2023-03-01T16:56:05;6.80;99.90
40454;DHT22;26160;51.858;4.398;2023-03-01T16:58:37;6.70;99.90
40454;DHT22;26160;51.858;4.398;2023-03-01T17:03:40;6.50;99.90
40454;DHT22;26160;51.858;4.398;2023-03-01T17:06:19;6.50;99.90
40454;DHT22;26160;51.858;4.398;2023-03-01T17:09:00;6.50;99.90
40454;DHT22;26160;51.858;4.398;2023-03-01T17:11:29;6.40;99.90
40454;DHT22;26160;51.858;4.398;2023-03-01T17:13:56;6.40;99.90
40454;DHT22;26160;51.858;4.398;2023-03-01T17:16:28;6.30;99.90
40454;DHT22;26160;51.858;4.398;2023-03-01T17:18:55;6.20;99.90
40454;DHT22;26160;51.858;4.398;2023-03-01T17:21:21;6.10;99.90
40454;DHT22;26160;51.858;4.398;2023-03-01T17:23:49;6.00;99.90
40454;DHT22;26160;51.858;4.398;2023-03-01T17:26:22;5.90;99.90
40454;DHT22;26160;51.858;4.398;2023-03-01T17:28:51;5.80;99.90
40454;DHT22;26160;51.858;4.398;2023-03-01T17:31:23;5.70;99.90
40454;DHT22;26160;51.858;4.398;2023-03-01T17:33:49;5.80;99.90
40454;DHT22;26160;51.858;4.398;2023-03-01T17:36:19;5.80;99.90
40454;DHT22;26160;51.858;4.398;2023-03-01T17:44:41;5.60;99.90
40454;DHT22;26160;51.858;4.398;2023-03-01T17:47:13;5.50;99.90
40454;DHT22;26160;51.858;4.398;2023-03-01T17:49:40;5.50;99.90
40454;DHT22;26160;51.858;4.398;2023-03-01T17:52:24;5.40;99.90
40454;DHT22;26160;51.858;4.398;2023-03-01T17:54:54;5.40;99.90
40454;DHT22;26160;51.858;4.398;2023-03-01T17:57:21;5.30;99.90
40454;DHT22;26160;51.858;4.398;2023-03-01T17:59:47;5.30;99.90
40454;DHT22;26160;51.858;4.398;2023-03-01T18:02:13;5.30;99.90
40454;DHT22;26160;51.858;4.398;2023-03-01T18:04:39;5.30;99.90
40454;DHT22;26160;51.858;4.398;2023-03-01T18:07:05;5.30;99.90
40454;DHT22;26160;51.858;4.398;2023-03-01T18:12:08;5.20;99.90
40454;DHT22;26160;51.858;4.398;2023-03-01T18:14:36;5.10;99.90
40454;DHT22;26160;51.858;4.398;2023-03-01T18:17:02;5.00;99.90
40454;DHT22;26160;51.858;4.398;2023-03-01T18:19:31;4.90;99.90
40454;DHT22;26160;51.858;4.398;2023-03-01T18:21:57;5.00;99.90
40454;DHT22;26160;51.858;4.398;2023-03-01T18:24:23;4.90;99.90
40454;DHT22;26160;51.858;4.398;2023-03-01T18:26:49;4.90;99.90
40454;DHT22;26160;51.858;4.398;2023-03-01T18:29:16;4.90;99.90
40454;DHT22;26160;51.858;4.398;2023-03-01T18:36:54;4.80;99.90
40454;DHT22;26160;51.858;4.398;2023-03-01T18:39:53;4.80;99.90
40454;DHT22;26160;51.858;4.398;2023-03-01T18:45:24;4.80;99.90
40454;DHT22;26160;51.858;4.398;2023-03-01T18:47:53;4.80;99.90
40454;DHT22;26160;51.858;4.398;2023-03-01T18:52:57;4.70;99.90
40454;DHT22;26160;51.858;4.398;2023-03-01T19:08:54;4.40;99.90
40454;DHT22;26160;51.858;4.398;2023-03-01T19:24:30;4.40;99.90
40454;DHT22;26160;51.858;4.398;2023-03-01T19:27:03;4.40;99.90
40454;DHT22;26160;51.858;4.398;2023-03-01T19:29:31;4.30;99.90
40454;DHT22;26160;51.858;4.398;2023-03-01T19:31:58;4.20;99.90
40454;DHT22;26160;51.858;4.398;2023-03-01T19:37:03;4.20;99.90
40454;DHT22;26160;51.858;4.398;2023-03-01T19:39:31;4.30;99.90
40454;DHT22;26160;51.858;4.398;2023-03-01T19:42:15;4.30;99.90
40454;DHT22;26160;51.858;4.398;2023-03-01T19:44:54;4.20;99.90
40454;DHT22;26160;51.858;4.398;2023-03-01T19:47:25;4.20;99.90
40454;DHT22;26160;51.858;4.398;2023-03-01T19:49:51;4.30;99.90
40454;DHT22;26160;51.858;4.398;2023-03-01T19:52:17;4.40;99.90
40454;DHT22;26160;51.858;4.398;2023-03-01T19:54:44;4.30;99.90
40454;DHT22;26160;51.858;4.398;2023-03-01T19:57:11;4.20;99.90
40454;DHT22;26160;51.858;4.398;2023-03-01T19:59:37;4.10;99.90
40454;DHT22;26160;51.858;4.398;2023-03-01T20:02:03;4.10;99.90
40454;DHT22;26160;51.858;4.398;2023-03-01T20:04:31;4.10;99.90
40454;DHT22;26160;51.858;4.398;2023-03-01T20:06:59;4.10;99.90
40454;DHT22;26160;51.858;4.398;2023-03-01T20:09:25;4.00;99.90
40454;DHT22;26160;51.858;4.398;2023-03-01T20:11:56;4.00;99.90
40454;DHT22;26160;51.858;4.398;2023-03-01T20:14:22;4.00;99.90
40454;DHT22;26160;51.858;4.398;2023-03-01T20:16:48;4.00;99.90
40454;DHT22;26160;51.858;4.398;2023-03-01T20:19:15;4.00;99.90
40454;DHT22;26160;51.858;4.398;2023-03-01T20:21:41;4.00;99.90
40454;DHT22;26160;51.858;4.398;2023-03-01T20:24:07;4.00;99.90
40454;DHT22;26160;51.858;4.398;2023-03-01T20:26:33;4.00;99.90
40454;DHT22;26160;51.858;4.398;2023-03-01T20:29:02;4.00;99.90
40454;DHT22;26160;51.858;4.398;2023-03-01T20:31:28;3.90;99.90
40454;DHT22;26160;51.858;4.398;2023-03-01T20:33:58;3.80;99.90
40454;DHT22;26160;51.858;4.398;2023-03-01T20:36:26;3.80;99.90
40454;DHT22;26160;51.858;4.398;2023-03-01T20:38:52;3.90;99.90
40454;DHT22;26160;51.858;4.398;2023-03-01T20:41:19;3.90;99.90
40454;DHT22;26160;51.858;4.398;2023-03-01T20:43:49;4.00;99.90
40454;DHT22;26160;51.858;4.398;2023-03-01T20:53:58;3.90;99.90
40454;DHT22;26160;51.858;4.398;2023-03-01T21:15:02;3.40;99.90
40454;DHT22;26160;51.858;4.398;2023-03-01T21:17:34;3.30;99.90
40454;DHT22;26160;51.858;4.398;2023-03-01T21:20:00;3.30;99.90
40454;DHT22;26160;51.858;4.398;2023-03-01T21:22:26;3.30;99.90
40454;DHT22;26160;51.858;4.398;2023-03-01T21:24:54;3.30;99.90
40454;DHT22;26160;51.858;4.398;2023-03-01T21:27:20;3.30;99.90
40454;DHT22;26160;51.858;4.398;2023-03-01T21:29:46;3.30;99.90
40454;DHT22;26160;51.858;4.398;2023-03-01T21:32:15;3.30;99.90
40454;DHT22;26160;51.858;4.398;2023-03-01T21:34:43;3.30;99.90
40454;DHT22;26160;51.858;4.398;2023-03-01T21:37:18;3.30;99.90
40454;DHT22;26160;51.858;4.398;2023-03-01T21:39:47;3.30;99.90
40454;DHT22;26160;51.858;4.398;2023-03-01T21:42:13;3.20;99.90
40454;DHT22;26160;51.858;4.398;2023-03-01T21:44:40;3.10;99.90
40454;DHT22;26160;51.858;4.398;2023-03-01T21:50:24;2.90;99.90
40454;DHT22;26160;51.858;4.398;2023-03-01T21:52:50;2.90;99.90
40454;DHT22;26160;51.858;4.398;2023-03-01T21:55:16;3.00;99.90
40454;DHT22;26160;51.858;4.398;2023-03-01T21:57:45;3.00;99.90
40454;DHT22;26160;51.858;4.398;2023-03-01T22:00:24;3.00;99.90
40454;DHT22;26160;51.858;4.398;2023-03-01T22:02:50;3.10;99.90
40454;DHT22;26160;51.858;4.398;2023-03-01T22:05:16;3.20;99.90
40454;DHT22;26160;51.858;4.398;2023-03-01T22:07:42;3.10;99.90
40454;DHT22;26160;51.858;4.398;2023-03-01T22:10:16;3.10;99.90
40454;DHT22;26160;51.858;4.398;2023-03-01T22:12:58;3.10;99.90
40454;DHT22;26160;51.858;4.398;2023-03-01T22:15:26;3.10;99.90
40454;DHT22;26160;51.858;4.398;2023-03-01T22:17:52;3.10;99.90
40454;DHT22;26160;51.858;4.398;2023-03-01T22:20:21;3.00;99.90
40454;DHT22;26160;51.858;4.398;2023-03-01T22:22:48;3.00;99.90
40454;DHT22;26160;51.858;4.398;2023-03-01T22:25:17;3.00;99.90
40454;DHT22;26160;51.858;4.398;2023-03-01T22:27:43;3.00;99.90
40454;DHT22;26160;51.858;4.398;2023-03-01T22:30:10;3.00;99.90
40454;DHT22;26160;51.858;4.398;2023-03-01T22:32:39;2.90;99.90
40454;DHT22;26160;51.858;4.398;2023-03-01T22:35:09;2.90;99.90
40454;DHT22;26160;51.858;4.398;2023-03-01T22:37:35;2.90;99.90
40454;DHT22;26160;51.858;4.398;2023-03-01T22:40:01;2.90;99.90
40454;DHT22;26160;51.858;4.398;2023-03-01T22:42:27;2.80;99.90
40454;DHT22;26160;51.858;4.398;2023-03-01T22:44:54;2.70;99.90
40454;DHT22;26160;51.858;4.398;2023-03-01T22:47:20;2.80;99.90
40454;DHT22;26160;51.858;4.398;2023-03-01T22:49:46;2.70;99.90
40454;DHT22;26160;51.858;4.398;2023-03-01T22:52:12;2.80;99.90
40454;DHT22;26160;51.858;4.398;2023-03-01T22:54:38;2.80;99.90
40454;DHT22;26160;51.858;4.398;2023-03-01T22:57:10;2.80;99.90
40454;DHT22;26160;51.858;4.398;2023-03-01T22:59:37;2.80;99.90
40454;DHT22;26160;51.858;4.398;2023-03-01T23:02:03;2.70;99.90
40454;DHT22;26160;51.858;4.398;2023-03-01T23:04:29;2.70;99.90
40454;DHT22;26160;51.858;4.398;2023-03-01T23:06:58;2.60;99.90
40454;DHT22;26160;51.858;4.398;2023-03-01T23:09:32;2.60;99.90
40454;DHT22;26160;51.858;4.398;2023-03-01T23:12:00;2.50;99.90
40454;DHT22;26160;51.858;4.398;2023-03-01T23:14:32;2.60;99.90
40454;DHT22;26160;51.858;4.398;2023-03-01T23:16:59;2.60;99.90
40454;DHT22;26160;51.858;4.398;2023-03-01T23:19:27;2.70;99.90
40454;DHT22;26160;51.858;4.398;2023-03-01T23:21:53;2.60;99.90
40454;DHT22;26160;51.858;4.398;2023-03-01T23:24:21;2.60;99.90
40454;DHT22;26160;51.858;4.398;2023-03-01T23:26:48;2.50;99.90
40454;DHT22;26160;51.858;4.398;2023-03-01T23:29:21;2.50;99.90
40454;DHT22;26160;51.858;4.398;2023-03-01T23:31:47;2.60;99.90
40454;DHT22;26160;51.858;4.398;2023-03-01T23:34:17;2.60;99.90
40454;DHT22;26160;51.858;4.398;2023-03-01T23:36:44;2.60;99.90
40454;DHT22;26160;51.858;4.398;2023-03-01T23:39:11;2.60;99.90
40454;DHT22;26160;51.858;4.398;2023-03-01T23:41:38;2.60;99.90
40454;DHT22;26160;51.858;4.398;2023-03-01T23:44:05;2.70;99.90
40454;DHT22;26160;51.858;4.398;2023-03-01T23:46:33;2.70;99.90
40454;DHT22;26160;51.858;4.398;2023-03-01T23:49:01;2.70;99.90
40454;DHT22;26160;51.858;4.398;2023-03-01T23:51:27;2.70;99.90
40454;DHT22;26160;51.858;4.398;2023-03-01T23:53:56;2.70;99.90
40454;DHT22;26160;51.858;4.398;2023-03-01T23:56:27;2.70;99.90
40454;DHT22;26160;51.858;4.398;2023-03-01T23:59:05;2.70;99.90
